Flight Track Log - Related Links

Times and Time Zones

All times are in EDT time to prevent confusion due to time zone crossing. See the UPS1191 flight status page for this flight to view local times or setup timezone preferences in your user account.

Time Position Orientation Groundspeed Altitude Reporting Facility
EDT Latitude Longitude Course Direction KTS MPH feet Rate Location/Type
Wed 10:28:22 PM 42.1310 -76.9090 272° West 440 506 36,000  Level FlightAware ADS-B
Wed 10:28:54 PM 42.1340 -76.9970 273° West 440 506 36,000  Level FlightAware ADS-B
Wed 10:29:30 PM 42.1380 -77.0970 273° West 440 506 36,000  Level FlightAware ADS-B
Wed 10:30:06 PM 42.1410 -77.1930 272° West 440 506 36,000  Level FlightAware ADS-B
Wed 10:30:40 PM 42.1440 -77.2880 272° West 440 506 36,000  Level FlightAware ADS-B
Wed 10:31:16 PM 42.1470 -77.3880 272° West 440 506 36,000  Level FlightAware ADS-B
Wed 10:31:46 PM 42.1490 -77.4560 272° West 441 507 36,000 -42,250 Level FlightAware ADS-B
Wed 10:32:04 PM 39.8830 -75.1970 64° Northeast 168 193 2,200 -84,000 Descending FlightAware ADS-B
Wed 10:32:10 PM 39.8840 -75.1950 57° Northeast 174 200 2,400 2,727 Climbing FlightAware ADS-B
Wed 10:32:15 PM 39.8900 -75.1900 33° Northeast 184 212 2,700 2,400 Climbing FlightAware ADS-B
Wed 10:32:25 PM 39.8970 -75.1880 12° North 200 230 3,000 2,000 Climbing FlightAware ADS-B
Wed 10:32:30 PM 39.9020 -75.1870 North 212 244 3,200 2,800 Climbing FlightAware ADS-B
Wed 10:32:40 PM 39.9130 -75.1900 348° North 218 251 3,700 2,800 Climbing FlightAware ADS-B
Wed 10:32:45 PM 39.9190 -75.1930 339° North 237 273 3,900 1,579 Climbing FlightAware ADS-B
Wed 10:32:59 PM 39.9300 -75.2030 325° Northwest 250 288 4,200 120,375 Climbing FlightAware ADS-B
Wed 10:33:01 PM 42.1550 -77.6670 321° Northwest 441 507 36,000 1,636 Climbing FlightAware ADS-B
Wed 10:33:10 PM 39.9400 -75.2150 139° Southeast 268 308 4,500 -98,211 Descending FlightAware ADS-B
Wed 10:33:20 PM 39.9490 -75.2260 317° Northwest 268 308 4,900 72,692 Climbing FlightAware ADS-B
Wed 10:33:36 PM 42.1580 -77.7630 320° Northwest 442 509 36,000 3,900 Climbing FlightAware ADS-B
Wed 10:33:40 PM 39.9700 -75.2540 138° Southeast 280 322 6,200 -58,138 Descending FlightAware ADS-B
Wed 10:34:05 PM 39.9970 -75.2860 318° Northwest 283 326 7,900 66,222 Climbing FlightAware ADS-B
Wed 10:34:07 PM 42.1600 -77.8480 319° Northwest 442 509 36,000 3,333 Climbing FlightAware ADS-B
Wed 10:34:14 PM 40.0040 -75.2950 137° Southeast 281 323 8,400 -41,684 Descending FlightAware ADS-B
Wed 10:34:45 PM 40.0380 -75.3330 319° Northwest 297 342 9,600 1,765 Climbing FlightAware ADS-B
Wed 10:35:05 PM 40.0580 -75.3580 316° Northwest 303 349 9,900 44,000 Climbing FlightAware ADS-B
Wed 10:35:21 PM 42.1660 -78.0550 317° Northwest 442 509 36,000 1,200 Climbing FlightAware ADS-B
Wed 10:35:40 PM 40.0950 -75.4060 135° Southeast 335 386 10,600  Descending FlightAware ADS-B
Wed 10:35:56 PM 42.1680 -78.1520 316° Northwest 442 509 36,000 1,500 Climbing FlightAware ADS-B
Wed 10:36:16 PM 40.1380 -75.4600 134° Southeast 373 429 11,500  Descending FlightAware ADS-B
Wed 10:36:26 PM 42.1700 -78.2340 315° West 442 509 36,000 1,636 Climbing FlightAware ADS-B
Wed 10:36:49 PM 40.1820 -75.5100 133° Southeast 399 459 12,400  Descending FlightAware ADS-B
Wed 10:37:06 PM 42.1750 -78.3440 314° West 444 511 36,000 1,135 Climbing FlightAware ADS-B
Wed 10:37:26 PM 40.2330 -75.5760 132° Southeast 432 497 13,100  Descending FlightAware ADS-B
Wed 10:37:41 PM 42.1810 -78.4420 313° West 445 512 36,000 2,333 Climbing FlightAware ADS-B
Wed 10:38:02 PM 40.2830 -75.6500 131° Southeast 441 507 14,500  Descending FlightAware ADS-B
Wed 10:38:11 PM 42.1850 -78.5250 312° West 445 512 36,000 2,400 Climbing FlightAware ADS-B
Wed 10:38:37 PM 40.3280 -75.7190 130° Southeast 442 509 15,900  Descending FlightAware ADS-B
Wed 10:38:46 PM 42.1900 -78.6230 311° West 446 513 36,000 1,400 Climbing FlightAware ADS-B
Wed 10:39:07 PM 40.3670 -75.7780 130° Southeast 449 517 16,600  Descending FlightAware ADS-B
Wed 10:39:26 PM 42.1950 -78.7330 310° West 447 514 36,000 300 Climbing FlightAware ADS-B
Wed 10:39:47 PM 40.4210 -75.8620 128° Southeast 432 497 16,800  Descending FlightAware ADS-B
Wed 10:39:56 PM 42.1990 -78.8190 310° West 447 514 36,000 1,714 Climbing FlightAware ADS-B
Wed 10:40:08 PM 40.4410 -75.9100 128° Southeast 444 511 17,400  Descending FlightAware ADS-B
Wed 10:40:36 PM 42.2040 -78.9280 309° West 447 514 36,000 4,114 Climbing FlightAware ADS-B
Wed 10:40:43 PM 40.4580 -75.9970 127° Southeast 410 472 19,800  Descending FlightAware ADS-B
Wed 10:41:07 PM 42.2070 -79.0140 309° West 447 514 36,000 1,500 Climbing FlightAware ADS-B
Wed 10:41:15 PM 40.4700 -76.0730 127° Southeast 416 479 20,600  Descending FlightAware ADS-B
Wed 10:41:41 PM 42.2120 -79.1140 308° West 447 514 36,000 1,946 Climbing FlightAware ADS-B
Wed 10:41:52 PM 40.4850 -76.1650 127° Southeast 416 479 21,800  Descending FlightAware ADS-B
Wed 10:42:21 PM 42.2160 -79.2250 308° West 447 514 36,000 1,784 Climbing FlightAware ADS-B
Wed 10:42:29 PM 40.5000 -76.2610 127° Southeast 419 482 22,900  Descending FlightAware ADS-B
Wed 10:42:56 PM 42.2200 -79.3200 308° West 446 513 36,000 1,688 Climbing FlightAware ADS-B
Wed 10:43:01 PM 40.5130 -76.3430 126° Southeast 422 486 23,800 -16,429 Descending FlightAware ADS-B
Wed 10:43:38 PM 40.5280 -76.4310 283° West 428 493 24,500 1,297 Climbing FlightAware ADS-B
Wed 10:44:15 PM 40.5430 -76.5310 281° West 433 498 25,400 1,333 Climbing FlightAware ADS-B
Wed 10:44:50 PM 40.5600 -76.6200 284° West 441 507 26,100 17,667 Climbing FlightAware ADS-B
Wed 10:44:51 PM 42.2330 -79.6450 307° West 446 513 36,000 1,200 Climbing FlightAware ADS-B
Wed 10:45:20 PM 40.5810 -76.6990 126° Southeast 445 512 26,700  Descending FlightAware ADS-B
Wed 10:45:21 PM 42.2360 -79.7240 307° West 446 513 36,000 1,135 Climbing FlightAware ADS-B
Wed 10:45:57 PM 40.6070 -76.7970 126° Southeast 450 518 27,400 -6,575 Descending FlightAware ADS-B
Wed 10:46:34 PM 40.6320 -76.8900 290° West 457 526 28,000 480 Climbing FlightAware ADS-B
Wed 10:47:12 PM 40.6590 -76.9940 289° West 479 551 28,000  Level FlightAware ADS-B
Wed 10:47:44 PM 40.6830 -77.0850 289° West 494 568 28,000 14,118 Level FlightAware ADS-B
Wed 10:47:46 PM 42.2490 -80.1320 305° West 446 513 36,000  Climbing FlightAware ADS-B
Wed 10:48:20 PM 40.7100 -77.1880 124° Southeast 508 585 28,000 -6,761 Descending FlightAware ADS-B
Wed 10:48:57 PM 40.7380 -77.2940 289° West 513 590 28,000  Level FlightAware ADS-B
Wed 10:49:25 PM 40.7600 -77.3810 288° West 515 593 28,000 16,552 Level FlightAware ADS-B
Wed 10:49:26 PM 42.2580 -80.4130 304° West 445 512 36,000  Climbing FlightAware ADS-B
Wed 10:50:05 PM 40.7910 -77.5000 123° Southeast 518 596 28,000  Descending FlightAware ADS-B
Wed 10:50:36 PM 42.2630 -80.6090 303° West 447 514 36,000  Climbing FlightAware ADS-B
Wed 10:50:45 PM 40.8210 -77.6160 122° Southeast 520 598 28,000  Descending FlightAware ADS-B
Wed 10:51:16 PM 42.2660 -80.7190 303° West 449 517 36,000  Climbing FlightAware ADS-B
Wed 10:51:21 PM 40.8480 -77.7190 121° Southeast 520 598 28,000  Descending FlightAware ADS-B
Wed 10:51:46 PM 42.2690 -80.8060 303° West 450 518 36,000  Climbing FlightAware ADS-B
Wed 10:52:06 PM 40.8830 -77.8560 121° Southeast 519 597 28,000  Descending FlightAware ADS-B
Wed 10:52:26 PM 42.2720 -80.9170 302° West 450 518 36,000  Climbing FlightAware ADS-B
Wed 10:52:36 PM 40.9050 -77.9460 121° Southeast 516 594 28,000  Descending FlightAware ADS-B
Wed 10:53:01 PM 42.2740 -81.0140 302° West 451 519 36,000  Climbing FlightAware ADS-B
Wed 10:53:11 PM 40.9250 -78.0550 120° Southeast 513 590 28,000  Descending FlightAware ADS-B
Wed 10:53:31 PM 42.2760 -81.0930 302° West 451 519 36,000  Climbing FlightAware ADS-B
Wed 10:53:47 PM 40.9380 -78.1560 120° Southeast 511 588 28,000  Descending FlightAware ADS-B
Wed 10:54:07 PM 42.2790 -81.1990 302° West 450 518 36,000  Climbing FlightAware ADS-B
Wed 10:54:26 PM 40.9540 -78.2880 120° Southeast 511 588 28,000  Descending FlightAware ADS-B
Wed 10:54:54 PM 42.2830 -81.3450 301° West 451 519 36,000  Climbing FlightAware ADS-B
Wed 10:54:56 PM 40.9650 -78.3790 120° Southeast 510 587 28,000  Descending FlightAware ADS-B
Wed 10:55:26 PM 42.2860 -81.4340 301° West 451 519 36,000  Climbing FlightAware ADS-B
Wed 10:55:31 PM 40.9780 -78.4880 120° Southeast 509 586 28,000  Descending FlightAware ADS-B
Wed 10:56:01 PM 42.2880 -81.5310 301° West 451 519 36,000  Climbing FlightAware ADS-B
Wed 10:56:07 PM 40.9900 -78.5830 120° Southeast 508 585 28,000  Descending FlightAware ADS-B
Wed 10:56:38 PM 42.2900 -81.6380 301° West 450 518 36,000  Climbing FlightAware ADS-B
Wed 10:56:47 PM 41.0060 -78.7160 119° Southeast 507 583 28,000  Descending FlightAware ADS-B
Wed 10:57:14 PM 42.2930 -81.7390 301° West 450 518 36,000  Climbing FlightAware ADS-B
Wed 10:57:19 PM 41.0170 -78.8120 119° Southeast 506 582 28,000  Descending FlightAware ADS-B
Wed 10:57:47 PM 42.2940 -81.8250 301° West 451 519 36,000  Climbing FlightAware ADS-B
Wed 10:57:51 PM 41.0290 -78.9180 119° Southeast 506 582 28,000  Descending FlightAware ADS-B
Wed 10:58:24 PM 42.2960 -81.9350 300° West 451 519 36,000  Climbing FlightAware ADS-B
Wed 10:58:31 PM 41.0420 -79.0280 119° Southeast 506 582 28,000  Descending FlightAware ADS-B
Wed 10:58:59 PM 42.2980 -82.0310 300° West 451 519 36,000  Climbing FlightAware ADS-B
Wed 10:59:01 PM 41.0540 -79.1340 119° Southeast 506 582 28,000  Descending FlightAware ADS-B
Wed 10:59:33 PM 42.2990 -82.1240 300° West 450 518 36,000  Climbing FlightAware ADS-B
Wed 10:59:41 PM 41.0680 -79.2570 119° Southeast 507 583 28,000  Descending FlightAware ADS-B
Wed 11:00:08 PM 42.3010 -82.2250 300° West 450 518 36,000  Climbing FlightAware ADS-B
Wed 11:00:12 PM 41.0790 -79.3500 119° Southeast 506 582 28,000 -12,632 Descending FlightAware ADS-B
Wed 11:00:46 PM 41.0910 -79.4560 279° West 505 581 28,000 12,973 Level FlightAware ADS-B
Wed 11:00:49 PM 42.3030 -82.3420 300° West 448 516 36,000  Climbing FlightAware ADS-B
Wed 11:01:21 PM 41.1020 -79.5560 119° Southeast 505 581 28,000  Descending FlightAware ADS-B
Wed 11:01:27 PM 42.3040 -82.4500 300° West 448 516 36,000  Climbing FlightAware ADS-B
Wed 11:01:56 PM 41.1150 -79.6720 119° Southeast 504 580 28,000  Descending FlightAware ADS-B
Wed 11:01:59 PM 42.3060 -82.5400 300° West 448 516 36,000  Climbing FlightAware ADS-B
Wed 11:02:36 PM 41.1280 -79.7960 119° Southeast 504 580 28,000  Descending FlightAware ADS-B
Wed 11:03:09 PM 42.3080 -82.7350 299° West 449 517 36,000  Climbing FlightAware ADS-B
Wed 11:03:14 PM 41.1390 -79.8920 118° Southeast 505 581 28,000  Descending FlightAware ADS-B
Wed 11:03:45 PM 42.3080 -82.8340 299° West 449 517 36,000  Climbing FlightAware ADS-B
Wed 11:03:51 PM 41.1500 -80.0040 118° Southeast 506 582 28,000  Descending FlightAware ADS-B
Wed 11:04:15 PM 42.3080 -82.9200 299° West 449 517 36,000  Climbing FlightAware ADS-B
Wed 11:04:26 PM 41.1640 -80.1360 118° Southeast 508 585 28,000  Descending FlightAware ADS-B
Wed 11:04:55 PM 42.3090 -83.0320 299° West 450 518 36,000  Climbing FlightAware ADS-B
Wed 11:05:01 PM 41.1760 -80.2440 118° Southeast 509 586 28,000  Descending FlightAware ADS-B
Wed 11:05:31 PM 42.3100 -83.1330 299° West 450 518 36,000  Climbing FlightAware ADS-B
Wed 11:05:36 PM 41.1860 -80.3500 117° Southeast 509 586 28,000  Descending FlightAware ADS-B
Wed 11:06:07 PM 42.3100 -83.2360 299° West 450 518 36,000  Climbing FlightAware ADS-B
Wed 11:06:11 PM 41.1980 -80.4610 117° Southeast 507 583 28,000  Descending FlightAware ADS-B
Wed 11:06:39 PM 42.3110 -83.3240 298° West 450 518 36,000  Climbing FlightAware ADS-B
Wed 11:06:46 PM 41.2080 -80.5690 117° Southeast 505 581 28,000  Descending FlightAware ADS-B
Wed 11:07:15 PM 42.3110 -83.4280 298° West 449 517 36,000  Climbing FlightAware ADS-B
Wed 11:07:22 PM 41.2180 -80.6690 117° Southeast 504 580 28,000  Descending FlightAware ADS-B
Wed 11:07:51 PM 42.3120 -83.5300 298° West 449 517 36,000  Climbing FlightAware ADS-B
Wed 11:07:56 PM 41.2290 -80.7790 117° Southeast 504 580 28,000  Descending FlightAware ADS-B
Wed 11:08:26 PM 42.3120 -83.6260 298° West 449 517 36,000  Climbing FlightAware ADS-B
Wed 11:08:31 PM 41.2410 -80.9020 117° Southeast 505 581 28,000  Descending FlightAware ADS-B
Wed 11:08:58 PM 42.3120 -83.7180 298° West 449 517 36,000  Climbing FlightAware ADS-B
Wed 11:09:07 PM 41.2520 -81.0130 117° Southeast 504 580 28,000  Descending FlightAware ADS-B
Wed 11:09:36 PM 42.3130 -83.8250 298° West 449 517 36,000  Climbing FlightAware ADS-B
Wed 11:09:41 PM 41.2620 -81.1190 117° Southeast 504 580 28,000  Descending FlightAware ADS-B
Wed 11:10:06 PM 42.3060 -83.9100 298° West 451 519 36,000  Climbing FlightAware ADS-B
Wed 11:10:17 PM 41.2770 -81.2290 116° Southeast 504 580 28,000 -11,707 Descending FlightAware ADS-B
Wed 11:10:47 PM 41.2900 -81.3200 281° West 503 579 28,000 15,000 Level FlightAware ADS-B
Wed 11:10:49 PM 42.3130 -84.0270 298° West 448 516 36,000  Climbing FlightAware ADS-B
Wed 11:11:29 PM 41.3090 -81.4480 117° Southeast 502 578 28,000 -6,857 Descending FlightAware ADS-B
Wed 11:11:59 PM 41.3230 -81.5400 281° West 501 577 28,000 15,484 Level FlightAware ADS-B
Wed 11:12:00 PM 42.3130 -84.2230 297° West 448 516 36,000  Climbing FlightAware ADS-B
Wed 11:12:36 PM 41.3400 -81.6500 116° Southeast 500 575 28,000  Descending FlightAware ADS-B
Wed 11:12:37 PM 42.3130 -84.3240 297° West 448 516 36,000  Climbing FlightAware ADS-B
Wed 11:13:12 PM 41.3560 -81.7600 116° Southeast 500 575 28,000 -6,957 Descending FlightAware ADS-B
Wed 11:13:46 PM 41.3710 -81.8630 281° West 500 575 28,000 13,714 Level FlightAware ADS-B
Wed 11:13:47 PM 42.3120 -84.5280 296° West 449 517 36,000  Climbing FlightAware ADS-B
Wed 11:14:20 PM 41.3860 -81.9650 115° Southeast 500 575 28,000 -6,957 Descending FlightAware ADS-B
Wed 11:14:56 PM 41.4020 -82.0750 281° West 500 575 28,000  Level FlightAware ADS-B
Wed 11:15:32 PM 41.4180 -82.1840 281° West 499 574 28,000 12,973 Level FlightAware ADS-B
Wed 11:15:33 PM 42.3100 -84.8260 295° West 451 519 36,000  Climbing FlightAware ADS-B
Wed 11:16:10 PM 41.4340 -82.2980 114° Southeast 499 574 28,000 -6,957 Descending FlightAware ADS-B
Wed 11:16:42 PM 41.4470 -82.3960 280° West 498 573 28,000  Level FlightAware ADS-B
Wed 11:17:16 PM 41.4600 -82.4950 280° West 498 573 28,000 13,714 Level FlightAware ADS-B
Wed 11:17:17 PM 42.3070 -85.1230 294° West 452 520 36,000  Climbing FlightAware ADS-B
Wed 11:17:54 PM 41.4750 -82.6110 113° Southeast 498 573 28,000 -6,761 Descending FlightAware ADS-B
Wed 11:18:28 PM 41.4860 -82.6920 280° West 498 573 28,000 13,333 Level FlightAware ADS-B
Wed 11:18:30 PM 42.3050 -85.3250 294° West 454 522 36,000  Climbing FlightAware ADS-B
Wed 11:18:59 PM 41.4980 -82.7830 112° Southeast 499 574 28,000  Descending FlightAware ADS-B
Wed 11:19:01 PM 42.3040 -85.4170 293° West 454 522 36,000 12,000 Climbing FlightAware ADS-B
Wed 11:19:39 PM 42.3030 -85.5240 269° West 453 521 36,000 -11,707 Level FlightAware ADS-B
Wed 11:19:42 PM 41.5170 -82.9210 111° Southeast 499 574 28,000  Descending FlightAware ADS-B
Wed 11:20:12 PM 42.3010 -85.6170 292° West 453 521 36,000  Climbing FlightAware ADS-B
Wed 11:20:20 PM 41.5330 -83.0300 111° Southeast 499 574 28,000  Descending FlightAware ADS-B
Wed 11:20:49 PM 42.3000 -85.7240 292° West 453 521 36,000  Climbing FlightAware ADS-B
Wed 11:20:54 PM 41.5480 -83.1280 110° East 500 575 28,000 -882 Descending FlightAware ADS-B
Wed 11:21:23 PM 42.2980 -85.8150 291° West 451 519 35,500  Climbing FlightAware ADS-B
Wed 11:21:38 PM 41.5720 -83.2960 110° East 499 574 28,000 -1,200 Descending FlightAware ADS-B
Wed 11:21:58 PM 42.2970 -85.9160 291° West 453 521 34,800  Climbing FlightAware ADS-B
Wed 11:22:13 PM 41.5860 -83.4000 110° East 499 574 28,000 -1,355 Descending FlightAware ADS-B
Wed 11:22:29 PM 42.2950 -86.0090 291° West 455 524 34,100  Climbing FlightAware ADS-B
Wed 11:22:48 PM 41.6010 -83.5060 110° East 499 574 28,000 -1,231 Descending FlightAware ADS-B
Wed 11:23:08 PM 42.2930 -86.1190 290° West 456 525 33,300  Climbing FlightAware ADS-B
Wed 11:23:24 PM 41.6160 -83.6180 109° East 499 574 28,000 -1,588 Descending FlightAware ADS-B
Wed 11:23:42 PM 42.2910 -86.2170 290° West 458 527 32,400  Climbing FlightAware ADS-B
Wed 11:23:56 PM 41.6290 -83.7100 109° East 499 574 28,000 -1,946 Descending FlightAware ADS-B
Wed 11:24:19 PM 42.2890 -86.3290 290° West 469 540 31,200  Climbing FlightAware ADS-B
Wed 11:24:32 PM 41.6430 -83.8180 108° East 498 573 28,000 -1,273 Descending FlightAware ADS-B
Wed 11:24:52 PM 42.2870 -86.4210 289° West 467 537 30,500  Climbing FlightAware ADS-B
Wed 11:25:06 PM 41.6570 -83.9270 108° East 499 574 28,000 -1,200 Descending FlightAware ADS-B
Wed 11:25:27 PM 42.2850 -86.5200 289° West 464 534 29,800  Climbing FlightAware ADS-B
Wed 11:25:44 PM 41.6730 -84.0450 108° East 500 575 28,000 -1,125 Descending FlightAware ADS-B
Wed 11:25:59 PM 42.2820 -86.6200 289° West 461 531 29,200  Climbing FlightAware ADS-B
Wed 11:26:18 PM 41.6860 -84.1500 107° East 500 575 28,000 -923 Descending FlightAware ADS-B
Wed 11:26:38 PM 42.2800 -86.7290 288° West 455 524 28,600  Climbing FlightAware ADS-B
Wed 11:26:54 PM 41.7000 -84.2590 107° East 499 574 28,000 -1,029 Descending FlightAware ADS-B
Wed 11:27:13 PM 42.2770 -86.8270 288° West 452 520 28,000  Level FlightAware ADS-B
Wed 11:27:34 PM 41.7150 -84.3770 106° East 500 575 28,000 -833 Level FlightAware ADS-B
Wed 11:27:49 PM 42.2750 -86.9290 287° West 449 517 27,500  Descending FlightAware ADS-B
Wed 11:28:06 PM 41.7280 -84.4820 106° East 501 577 28,000 -882 Climbing FlightAware ADS-B
Wed 11:28:23 PM 42.2720 -87.0250 287° West 445 512 27,000  Descending FlightAware ADS-B
Wed 11:28:43 PM 41.7410 -84.5960 106° East 502 578 28,000 -857 Climbing FlightAware ADS-B
Wed 11:28:58 PM 42.2690 -87.1220 287° West 440 506 26,500  Descending FlightAware ADS-B
Wed 11:29:17 PM 41.7540 -84.7000 105° East 502 578 28,000 -800 Climbing FlightAware ADS-B
Wed 11:29:28 PM 42.2670 -87.2050 286° West 437 503 26,100  Descending FlightAware ADS-B
Wed 11:29:55 PM 41.7680 -84.8160 105° East 503 579 28,000 -878 Climbing FlightAware ADS-B
Wed 11:30:09 PM 42.2630 -87.3210 286° West 432 497 25,500  Descending FlightAware ADS-B
Wed 11:30:29 PM 41.7800 -84.9180 104° East 503 579 28,000 -727 Climbing FlightAware ADS-B
Wed 11:30:42 PM 42.2610 -87.4070 285° West 429 494 25,100  Descending FlightAware ADS-B
Wed 11:31:05 PM 41.7940 -85.0330 104° East 504 580 28,000 -857 Climbing FlightAware ADS-B
Wed 11:31:17 PM 42.2580 -87.5020 285° West 427 491 24,600  Descending FlightAware ADS-B
Wed 11:31:38 PM 41.8060 -85.1350 104° East 504 580 28,000 -947 Climbing FlightAware ADS-B
Wed 11:31:55 PM 42.2550 -87.6040 285° West 424 488 24,000  Descending FlightAware ADS-B
Wed 11:32:15 PM 41.8270 -85.2460 103° East 506 582 28,000 -387 Climbing FlightAware ADS-B
Wed 11:32:26 PM 42.2520 -87.6840 284° West 420 483 23,800  Descending FlightAware ADS-B
Wed 11:32:50 PM 41.8560 -85.3500 102° East 504 580 28,000 -1,622 Climbing FlightAware ADS-B
Wed 11:33:03 PM 42.2480 -87.7800 283° West 418 481 22,800  Descending FlightAware ADS-B
Wed 11:33:22 PM 41.8830 -85.4440 101° East 505 581 28,000 -2,000 Climbing FlightAware ADS-B
Wed 11:33:39 PM 42.2440 -87.8760 282° West 408 470 21,600  Descending FlightAware ADS-B
Wed 11:33:59 PM 41.9130 -85.5520 100° East 503 579 28,000 -2,229 Climbing FlightAware ADS-B
Wed 11:34:14 PM 42.2310 -87.9700 281° West 399 459 20,300  Descending FlightAware ADS-B
Wed 11:34:34 PM 41.9410 -85.6560 99° East 501 577 28,000 -2,545 Climbing FlightAware ADS-B
Wed 11:34:47 PM 42.2380 -88.0480 280° West 387 445 18,900 -13,102 Descending FlightAware ADS-B
Wed 11:35:23 PM 42.2350 -88.1350 267° West 379 436 17,300 -2,417 Descending FlightAware ADS-B
Wed 11:35:59 PM 42.2320 -88.2180 267° West 376 433 16,000 -1,324 Descending FlightAware ADS-B
Wed 11:36:31 PM 42.2290 -88.2930 267° West 359 413 15,800 -727 Descending FlightAware ADS-B
Wed 11:37:05 PM 42.2260 -88.3680 267° West 327 376 15,200 -1,865 Descending FlightAware ADS-B
Wed 11:37:45 PM 42.2230 -88.4460 267° West 304 350 13,500 -2,500 Descending FlightAware ADS-B
Wed 11:38:17 PM 42.2210 -88.5070 267° West 289 333 12,200 -2,647 Descending FlightAware ADS-B
Wed 11:38:53 PM 42.2180 -88.5710 266° West 282 325 10,500 -2,760 Descending FlightAware ADS-B
Wed 11:39:07 PM 42.2170 -88.5960 267° West 278 320 9,900 -2,455 Descending FlightAware ADS-B
Wed 11:39:37 PM 42.2250 -88.6470 282° West 271 312 8,700 -2,341 Descending FlightAware ADS-B
Wed 11:39:48 PM 42.2310 -88.6620 298° West 272 313 8,300 -2,625 Descending FlightAware ADS-B
Wed 11:40:09 PM 42.2430 -88.6930 298° West 273 314 7,300 -2,591 Descending FlightAware ADS-B
Wed 11:40:32 PM 42.2560 -88.7280 297° West 249 287 6,400 -2,167 Descending FlightAware ADS-B
Wed 11:40:45 PM 42.2600 -88.7470 286° West 231 266 6,000 -1,500 Descending FlightAware ADS-B
Wed 11:41:04 PM 42.2620 -88.7710 276° West 211 243 5,600 -1,393 Descending FlightAware ADS-B
Wed 11:41:41 PM 42.2620 -88.8180 270° West 173 199 4,700 -1,469 Descending FlightAware ADS-B
Wed 11:41:53 PM 42.2610 -88.8300 264° West 173 199 4,400 51,333 Descending FlightAware ADS-B
Wed 11:42:08 PM 42.0660 -87.0520 98° East 495 570 27,800 -1,154 Climbing FlightAware ADS-B
Wed 11:42:19 PM 42.2610 -88.8590 279° West 166 191 3,900 -857 Descending FlightAware ADS-B
Wed 11:42:43 PM 42.0720 -87.1560 98° East 498 573 27,300 -913 Climbing FlightAware ADS-B
Wed 11:43:05 PM 42.2590 -88.9060 279° West 148 170 3,200 -973 Descending FlightAware ADS-B
Wed 11:43:20 PM 42.0790 -87.2750 98° East 499 574 26,700 -686 Climbing FlightAware ADS-B
Wed 11:43:40 PM 42.2530 -88.9350 279° West 137 158 2,800 -833 Descending FlightAware ADS-B
Wed 11:43:56 PM 42.0860 -87.3840 98° East 499 574 26,200 -316 Climbing FlightAware ADS-B
Wed 11:43:59 PM 42.2490 -88.9510 279° West 137 158 2,700 -52,889 Descending FlightAware ADS-B
Wed 11:44:23 PM 42.2430 -88.9680 245° Southwest 130 150 2,400 37,135 Descending FlightAware ADS-B
Wed 11:44:36 PM 42.0930 -87.5110 97° East 499 574 25,600 -571 Climbing FlightAware ADS-B
Wed 11:44:44 PM 42.2370 -88.9830 278° West 122 140 2,200 -50,571 Descending FlightAware ADS-B
Wed 11:45:04 PM 42.2320 -88.9980 246° West 125 144 2,000 51,111 Descending FlightAware ADS-B
Wed 11:45:11 PM 42.0990 -87.6180 97° East 487 560 25,200 -600 Climbing FlightAware ADS-B
Wed 11:45:24 PM 42.2270 -89.0120 278° West 123 142 1,800 -2,432 Descending FlightAware ADS-B
Wed 11:45:48 PM 42.1050 -87.7280 97° East 470 541 23,700 -698 Climbing FlightAware ADS-B
Wed 11:46:07 PM 42.2170 -89.0420 277° West 123 142 1,300 -3,290 Descending FlightAware ADS-B
Wed 11:46:19 PM 42.1100 -87.8180 96° East 459 528 22,000 -600 Climbing FlightAware ADS-B
Wed 11:46:27 PM 42.2120 -89.0560 277° West 123 142 1,100 -45,214 Descending FlightAware ADS-B
Wed 11:46:47 PM 42.2070 -89.0700 244° Southwest 132 152 900 42,222 Descending FlightAware ADS-B
Wed 11:46:54 PM 42.1150 -87.9190 96° East 447 514 20,100 23,591 Climbing FlightAware ADS-B
Wed 11:47:31 PM 42.1210 -88.0200 275° West 433 498 18,200 -3,041 Descending FlightAware ADS-B
Wed 11:48:07 PM 42.1260 -88.1140 274° West 420 483 16,400 -2,294 Descending FlightAware ADS-B
Wed 11:48:39 PM 42.1300 -88.1980 274° West 412 474 15,600 -2,174 Descending FlightAware ADS-B
Wed 11:49:16 PM 42.1350 -88.2920 274° West 400 460 13,900 -2,667 Descending FlightAware ADS-B
Wed 11:50:00 PM 42.1400 -88.4010 274° West 389 448 12,000 -2,400 Descending FlightAware ADS-B
Wed 11:50:31 PM 42.1440 -88.4760 274° West 384 442 10,900 -1,075 Descending FlightAware ADS-B
Wed 11:51:07 PM 42.1490 -88.5620 275° West 385 443 10,800 -82 Descending FlightAware ADS-B
Wed 11:51:44 PM 42.1550 -88.6510 275° West 382 440 10,800  Level FlightAware ADS-B
Wed 11:52:16 PM 42.1590 -88.7240 274° West 343 395 10,800 -609 Level FlightAware ADS-B
Wed 11:52:53 PM 42.1640 -88.7980 275° West 299 344 10,100 -1,111 Descending FlightAware ADS-B
Wed 11:53:10 PM 42.1660 -88.8300 275° West 288 331 9,800 -1,814 Descending FlightAware ADS-B
Wed 11:53:36 PM 42.1700 -88.8750 277° West 285 328 8,800 -2,681 Descending FlightAware ADS-B
Wed 11:53:57 PM 42.1720 -88.9140 274° West 288 331 7,700 -2,824 Descending FlightAware ADS-B
Wed 11:54:10 PM 42.1730 -88.9340 274° West 287 330 7,200 -2,229 Descending FlightAware ADS-B
Wed 11:54:32 PM 42.1670 -88.9710 258° West 276 318 6,400 -2,233 Descending FlightAware ADS-B
Wed 11:54:53 PM 42.1590 -89.0050 252° West 268 308 5,600 -2,154 Descending FlightAware ADS-B
Wed 11:55:11 PM 42.1520 -89.0360 253° West 259 298 5,000 -1,500 Descending FlightAware ADS-B
Wed 11:55:33 PM 42.1440 -89.0680 251° West 238 274 4,600 -1,116 Descending FlightAware ADS-B
Wed 11:55:54 PM 42.1360 -89.0980 250° West 221 254 4,200 -1,200 Descending FlightAware ADS-B
Wed 11:56:18 PM 42.1290 -89.1270 252° West 208 239 3,700 -1,256 Descending FlightAware ADS-B
Wed 11:56:37 PM 42.1240 -89.1510 254° West 204 235 3,300 -1,500 Descending FlightAware ADS-B
Wed 11:56:50 PM 42.1210 -89.1670 256° West 200 230 2,900 -1,297 Descending FlightAware ADS-B
Wed 11:57:14 PM 42.1160 -89.1950 256° West 184 212 2,500 -909 Descending FlightAware ADS-B
Wed 11:57:23 PM 42.1150 -89.2040 261° West 182 209 2,400 -375 Descending FlightAware ADS-B
Wed 11:57:46 PM 42.1240 -89.2240 301° West 181 208 2,300 -207 Descending FlightAware ADS-B
Wed 11:57:52 PM 42.1300 -89.2270 340° North 181 208 2,300  Level FlightAware ADS-B
Wed 11:57:59 PM 42.1350 -89.2280 352° North 181 208 2,300 -207 Level FlightAware ADS-B
Wed 11:58:21 PM 42.1520 -89.2190 21° North 153 176 2,200 -571 Descending FlightAware ADS-B
Wed 11:58:41 PM 42.1610 -89.2060 47° Northeast 136 157 1,900 -828 Descending FlightAware ADS-B
Wed 11:58:50 PM 42.1630 -89.2000 66° East 128 147 1,800 -643 Descending FlightAware ADS-B
Wed 11:59:09 PM 42.1680 -89.1850 66° East 122 140 1,600 -682 Descending FlightAware ADS-B
Wed 11:59:34 PM 42.1740 -89.1680 65° Northeast 118 136 1,300 -667 Descending FlightAware ADS-B
Wed 11:59:54 PM 42.1790 -89.1540 64° Northeast 116 133 1,100 -450 Descending FlightAware ADS-B
Thu 12:00:14 AM 42.1830 -89.1410 67° East 111 128 1,000 -600 Descending FlightAware ADS-B
Thu 12:00:34 AM 42.1870 -89.1290 66° East 114 131 700 -800 Descending FlightAware ADS-B
Thu 12:00:44 AM 42.1900 -89.1210 63° Northeast 117 135 600 -162 Descending FlightAware ADS-B
Thu 12:01:11 AM 42.1950 -89.1060 66° East 117 135 600  Level FlightAware ADS-B

Login

Don't have an account? Register now (free) for customized features, flight alerts, and more!